Time;durP1;ratioP1;P1;durP2;ratioP2;P2;SDS_P1;SDS_P2;PMS_P1;PMS_P2;Temp;Humidity;BMP_temperature;BMP_pressure;BME280_temperature;BME280_humidity;BME280_pressure;Samples;Min_cycle;Max_cycle;Signal;HPM_P1;HPM_P2
2022/09/28 00:00:54;;;;;;;6.90;5.55;;;9.20;99.80;;;;;;5033732;28;20033;-83
2022/09/28 00:03:20;;;;;;;7.70;5.65;;;9.20;99.90;;;;;;5013535;28;20018;-83
2022/09/28 00:05:46;;;;;;;7.78;5.13;;;9.20;99.90;;;;;;5034370;28;20108;-82
2022/09/28 00:08:12;;;;;;;5.88;4.65;;;9.20;99.90;;;;;;5035068;28;20022;-81
2022/09/28 00:10:39;;;;;;;6.13;5.18;;;9.20;99.90;;;;;;5036520;28;20025;-83
2022/09/28 00:13:06;;;;;;;5.40;4.45;;;9.10;99.90;;;;;;5018065;28;20050;-83
2022/09/28 00:15:32;;;;;;;11.77;6.20;;;9.00;99.90;;;;;;5014253;28;20041;-82
2022/09/28 00:17:58;;;;;;;7.40;4.97;;;9.00;99.90;;;;;;5034584;28;20017;-83
2022/09/28 00:20:24;;;;;;;10.65;5.28;;;9.00;99.90;;;;;;5020286;28;20029;-84
2022/09/28 00:22:50;;;;;;;7.75;5.30;;;9.00;99.90;;;;;;5039785;28;20024;-83
2022/09/28 00:25:16;;;;;;;6.95;5.32;;;8.90;99.90;;;;;;5055633;28;20033;-82
2022/09/28 00:27:42;;;;;;;5.78;5.20;;;8.90;99.90;;;;;;5039117;28;20139;-82
2022/09/28 00:30:08;;;;;;;6.47;5.18;;;8.80;99.90;;;;;;5015959;28;20032;-84
2022/09/28 00:32:34;;;;;;;6.93;5.70;;;8.80;99.90;;;;;;5019581;28;20545;-83
2022/09/28 00:35:00;;;;;;;8.65;5.63;;;8.80;99.90;;;;;;5033855;28;20080;-83
2022/09/28 00:37:26;;;;;;;7.40;5.38;;;8.70;99.90;;;;;;5033529;28;20112;-82
2022/09/28 00:39:52;;;;;;;6.05;5.35;;;8.70;99.90;;;;;;5016474;28;20029;-81
2022/09/28 00:42:20;;;;;;;6.13;4.68;;;8.70;99.90;;;;;;5033354;28;20099;-81
2022/09/28 00:44:57;;;;;;;7.00;4.32;;;8.70;99.90;;;;;;5033691;28;20017;-82
2022/09/28 00:47:41;;;;;;;4.57;4.07;;;8.60;99.90;;;;;;5033396;28;20056;-83
2022/09/28 00:50:07;;;;;;;6.82;5.28;;;8.60;99.90;;;;;;5021937;28;20382;-82
2022/09/28 00:52:48;;;;;;;6.50;5.05;;;8.60;99.90;;;;;;5033277;28;20029;-81
2022/09/28 00:55:21;;;;;;;5.20;4.70;;;8.60;99.90;;;;;;5015579;28;20057;-82
2022/09/28 00:57:52;;;;;;;4.53;4.05;;;8.60;99.90;;;;;;5034504;28;20018;-83
2022/09/28 01:00:18;;;;;;;5.00;4.30;;;8.50;99.90;;;;;;5047921;28;20085;-83
2022/09/28 01:02:44;;;;;;;5.07;4.38;;;8.50;99.90;;;;;;5036940;28;20029;-83
2022/09/28 01:05:11;;;;;;;4.57;3.93;;;8.50;99.90;;;;;;5033629;28;20021;-83
2022/09/28 01:07:37;;;;;;;6.25;5.40;;;8.50;99.90;;;;;;5032122;28;20056;-83
2022/09/28 01:10:04;;;;;;;5.22;3.75;;;8.40;99.90;;;;;;5033346;28;20056;-84
2022/09/28 01:12:30;;;;;;;5.90;4.17;;;8.40;99.90;;;;;;5033165;28;20436;-83
2022/09/28 01:14:59;;;;;;;4.90;4.40;;;8.30;99.90;;;;;;5032642;28;20025;-82
2022/09/28 01:17:38;;;;;;;5.47;3.83;;;8.30;99.90;;;;;;5033184;28;20116;-83
2022/09/28 01:20:19;;;;;;;7.03;4.28;;;8.30;99.90;;;;;;5033885;28;20018;-83
2022/09/28 01:23:25;;;;;;;5.57;4.20;;;8.30;99.90;;;;;;5039265;28;20483;-82
2022/09/28 01:25:58;;;;;;;5.13;4.55;;;8.30;99.90;;;;;;5012553;28;20372;-83
2022/09/28 01:28:27;;;;;;;4.70;3.13;;;8.20;99.90;;;;;;5027651;28;20029;-82
2022/09/28 01:31:15;;;;;;;4.53;3.65;;;8.20;99.90;;;;;;5034254;28;20021;-83
2022/09/28 01:33:54;;;;;;;7.60;3.85;;;8.20;99.90;;;;;;5034681;28;20080;-81
2022/09/28 01:36:29;;;;;;;7.80;3.75;;;8.20;99.90;;;;;;5038809;28;20037;-82
2022/09/28 01:39:23;;;;;;;8.32;3.72;;;8.20;99.90;;;;;;5038373;28;20017;-81
2022/09/28 01:41:52;;;;;;;4.47;3.85;;;8.10;99.90;;;;;;5031774;28;20073;-81
2022/09/28 01:44:21;;;;;;;6.28;3.50;;;8.10;99.90;;;;;;5034991;28;20013;-82
2022/09/28 01:46:49;;;;;;;4.50;3.80;;;8.10;99.90;;;;;;5033453;28;20107;-82
2022/09/28 01:49:30;;;;;;;4.63;3.35;;;8.10;99.90;;;;;;5033285;28;20018;-81
2022/09/28 01:52:23;;;;;;;4.47;3.15;;;8.20;99.90;;;;;;5033380;28;20391;-82
2022/09/28 01:55:05;;;;;;;5.18;3.70;;;8.10;99.90;;;;;;5024536;28;20021;-85
2022/09/28 01:57:34;;;;;;;4.43;3.25;;;8.10;99.90;;;;;;5044432;28;20053;-86
2022/09/28 02:00:09;;;;;;;5.13;3.33;;;8.10;99.90;;;;;;5060258;28;20071;-84
2022/09/28 02:02:47;;;;;;;4.43;3.47;;;8.10;99.90;;;;;;5039936;28;20021;-84
2022/09/28 02:05:19;;;;;;;;;;;8.10;99.90;;;;;;5038910;28;20021;-84
2022/09/28 02:07:56;;;;;;;4.57;2.78;;;8.10;99.90;;;;;;5039625;28;19905;-85
2022/09/28 02:10:27;;;;;;;5.63;2.90;;;8.10;99.90;;;;;;5039329;28;20367;-84
2022/09/28 02:13:10;;;;;;;4.55;3.20;;;8.10;99.90;;;;;;5039096;28;20479;-84
2022/09/28 02:15:53;;;;;;;5.10;3.67;;;8.10;99.90;;;;;;5039373;28;20037;-84
2022/09/28 02:18:19;;;;;;;4.25;3.50;;;8.10;99.90;;;;;;5039318;28;20036;-83
2022/09/28 02:20:58;;;;;;;4.20;3.47;;;8.10;99.90;;;;;;5040303;28;20025;-85
2022/09/28 02:23:27;;;;;;;2.88;2.58;;;8.10;99.90;;;;;;5041467;28;20438;-84
2022/09/28 02:26:05;;;;;;;7.03;3.55;;;8.00;99.90;;;;;;5039297;28;20079;-82
2022/09/28 02:28:31;;;;;;;;;;;8.10;99.90;;;;;;5039183;28;20018;-83
2022/09/28 02:30:56;;;;;;;3.60;2.58;;;8.00;99.90;;;;;;5038423;28;19928;-83
2022/09/28 02:33:28;;;;;;;4.18;3.15;;;8.00;99.90;;;;;;5038654;28;20437;-83
2022/09/28 02:35:56;;;;;;;4.25;3.25;;;8.00;99.90;;;;;;5038550;28;20521;-82
2022/09/28 02:38:22;;;;;;;4.03;3.40;;;8.00;99.90;;;;;;5038552;28;20025;-84
2022/09/28 02:41:13;;;;;;;4.13;2.78;;;8.00;99.90;;;;;;5038574;28;20025;-81
2022/09/28 02:43:48;;;;;;;4.10;3.10;;;8.00;99.90;;;;;;5038523;28;20104;-82
2022/09/28 02:46:31;;;;;;;2.60;2.40;;;8.00;99.90;;;;;;5041037;28;20049;-83
2022/09/28 02:49:03;;;;;;;3.08;2.35;;;8.00;99.90;;;;;;5053402;28;20068;-83
2022/09/28 02:52:00;;;;;;;3.20;2.60;;;8.00;99.90;;;;;;5038915;28;20026;-83
2022/09/28 02:54:49;;;;;;;4.00;3.10;;;8.00;99.90;;;;;;5038188;28;20045;-83
2022/09/28 02:57:26;;;;;;;3.22;2.65;;;8.00;99.90;;;;;;5037797;28;20056;-82
2022/09/28 03:00:09;;;;;;;3.78;3.13;;;8.00;99.90;;;;;;5037004;28;20029;-82
2022/09/28 03:03:36;;;;;;;2.95;2.50;;;8.00;99.90;;;;;;5038247;28;20446;-82
2022/09/28 03:06:15;;;;;;;3.97;2.50;;;8.00;99.90;;;;;;5001164;28;20475;-86
2022/09/28 03:08:50;;;;;;;3.78;2.92;;;8.00;99.90;;;;;;5034730;28;20017;-85
2022/09/28 03:11:39;;;;;;;4.55;3.15;;;8.00;99.90;;;;;;5035686;28;20470;-83
2022/09/28 03:14:05;;;;;;;4.70;3.25;;;8.10;99.90;;;;;;5018202;28;20487;-84
2022/09/28 03:16:31;;;;;;;4.30;3.33;;;8.10;99.90;;;;;;5035241;28;20633;-84
2022/09/28 03:18:57;;;;;;;4.13;3.42;;;8.10;99.90;;;;;;5036751;28;20040;-85
2022/09/28 03:21:23;;;;;;;4.10;3.42;;;8.10;99.90;;;;;;5035818;28;20029;-85
2022/09/28 03:23:49;;;;;;;5.03;3.80;;;8.10;99.90;;;;;;5036559;28;20017;-85
2022/09/28 03:26:15;;;;;;;7.25;4.45;;;8.20;99.90;;;;;;5038680;28;20021;-83
2022/09/28 03:28:42;;;;;;;4.78;3.55;;;8.20;99.90;;;;;;5020307;28;20393;-82
2022/09/28 03:31:08;;;;;;;5.00;3.40;;;8.10;99.90;;;;;;5055932;28;20083;-83
2022/09/28 03:33:34;;;;;;;7.63;3.80;;;8.20;99.90;;;;;;5037256;28;20048;-83
2022/09/28 03:36:00;;;;;;;5.10;3.67;;;8.20;99.90;;;;;;5047279;28;20031;-83
2022/09/28 03:38:26;;;;;;;5.15;3.72;;;8.30;99.90;;;;;;5039779;28;20173;-82
2022/09/28 03:40:57;;;;;;;5.55;3.42;;;8.30;99.90;;;;;;5020188;28;20033;-82
2022/09/28 03:43:24;;;;;;;4.95;3.97;;;8.30;99.90;;;;;;5021687;28;20486;-82
2022/09/28 03:45:55;;;;;;;6.10;4.13;;;8.30;99.90;;;;;;5040433;28;20045;-83
2022/09/28 03:48:25;;;;;;;7.65;6.28;;;8.40;99.90;;;;;;5036663;28;20026;-84
2022/09/28 03:50:56;;;;;;;5.28;3.88;;;8.40;99.90;;;;;;5043548;28;20014;-82
2022/09/28 03:53:22;;;;;;;4.95;3.88;;;8.40;99.90;;;;;;5037982;28;20022;-82
2022/09/28 03:55:49;;;;;;;19.80;11.23;;;8.40;99.90;;;;;;5047091;28;20037;-85
2022/09/28 03:58:16;;;;;;;11.82;7.50;;;8.40;99.90;;;;;;5043142;28;20013;-86
2022/09/28 04:00:42;;;;;;;7.17;4.97;;;8.50;99.90;;;;;;5046941;28;20093;-84
2022/09/28 04:03:08;;;;;;;5.57;3.97;;;8.50;99.90;;;;;;5003531;28;20057;-85
2022/09/28 04:05:34;;;;;;;5.50;4.68;;;8.50;99.90;;;;;;4999777;28;20068;-84
2022/09/28 04:08:00;;;;;;;12.50;6.40;;;8.50;99.90;;;;;;5034850;28;20017;-84
2022/09/28 04:10:26;;;;;;;5.03;4.22;;;8.50;99.90;;;;;;5036732;28;20121;-84
2022/09/28 04:12:56;;;;;;;5.93;4.47;;;8.60;99.90;;;;;;5039192;28;20045;-84
2022/09/28 04:15:23;;;;;;;4.90;4.35;;;8.50;99.90;;;;;;5038560;28;20030;-84
2022/09/28 04:17:50;;;;;;;4.88;4.15;;;8.60;99.90;;;;;;5021495;28;20410;-86
2022/09/28 04:20:16;;;;;;;6.30;3.97;;;8.60;99.90;;;;;;5039698;28;20026;-85
2022/09/28 04:22:43;;;;;;;5.40;3.75;;;8.60;99.90;;;;;;5029987;28;20399;-84
2022/09/28 04:25:09;;;;;;;4.63;3.60;;;8.60;99.90;;;;;;5031493;28;20025;-84
2022/09/28 04:30:20;;;;;;;4.00;3.60;;;8.70;99.90;;;;;;5035747;28;20052;-84
2022/09/28 04:32:47;;;;;;;4.60;3.90;;;8.70;99.90;;;;;;5039654;28;20028;-83
2022/09/28 04:35:14;;;;;;;6.35;4.00;;;8.70;99.90;;;;;;5031246;28;20037;-85
2022/09/28 04:37:40;;;;;;;6.93;4.25;;;8.70;99.90;;;;;;5022424;28;20033;-84
2022/09/28 04:40:06;;;;;;;4.75;4.00;;;8.70;99.90;;;;;;5033465;28;20029;-85
2022/09/28 04:42:32;;;;;;;5.97;3.88;;;8.70;99.90;;;;;;5019899;28;20405;-85
2022/09/28 04:44:59;;;;;;;5.22;4.10;;;8.80;99.90;;;;;;5019759;28;20049;-85
2022/09/28 04:47:26;;;;;;;4.35;3.95;;;8.80;99.90;;;;;;5041481;28;20624;-85
2022/09/28 04:49:52;;;;;;;5.70;3.90;;;8.80;99.90;;;;;;5038267;28;20065;-83
2022/09/28 04:52:17;;;;;;;6.38;4.45;;;8.90;99.90;;;;;;5047365;28;20035;-82
2022/09/28 04:54:43;;;;;;;4.78;4.20;;;8.90;99.90;;;;;;5049157;28;20033;-87
2022/09/28 04:57:09;;;;;;;4.53;3.47;;;8.90;99.90;;;;;;5034880;28;20038;-83
2022/09/28 04:59:36;;;;;;;5.57;3.58;;;8.90;99.90;;;;;;5035039;28;20016;-82
2022/09/28 05:02:03;;;;;;;4.45;4.00;;;9.00;99.90;;;;;;5037320;28;20029;-85
2022/09/28 05:04:32;;;;;;;6.57;4.20;;;9.00;99.90;;;;;;5007991;28;20026;-85
2022/09/28 05:06:58;;;;;;;7.95;6.75;;;9.00;99.90;;;;;;5052099;28;20022;-85
2022/09/28 05:09:24;;;;;;;4.68;3.90;;;9.00;99.90;;;;;;5044932;28;20075;-85
2022/09/28 05:11:51;;;;;;;4.60;4.05;;;9.00;99.90;;;;;;5036276;28;20021;-84
2022/09/28 05:14:18;;;;;;;;;;;9.00;99.90;;;;;;5034093;28;20021;-83
2022/09/28 05:16:44;;;;;;;6.82;4.13;;;9.00;99.90;;;;;;5015396;28;20436;-84
2022/09/28 05:19:11;;;;;;;4.35;3.67;;;9.00;99.90;;;;;;5033908;28;20029;-84
2022/09/28 05:21:37;;;;;;;6.50;5.22;;;9.00;99.90;;;;;;5032496;28;20028;-84
2022/09/28 05:24:06;;;;;;;8.32;5.03;;;9.00;99.90;;;;;;5002439;28;20089;-84
2022/09/28 05:26:32;;;;;;;6.57;5.10;;;9.00;99.90;;;;;;5032797;28;20036;-81
2022/09/28 05:28:58;;;;;;;6.03;4.50;;;9.00;99.90;;;;;;5031994;28;20022;-85
2022/09/28 05:31:26;;;;;;;10.23;5.43;;;8.90;99.90;;;;;;5032028;28;20153;-83
2022/09/28 05:33:52;;;;;;;5.25;4.63;;;9.00;99.90;;;;;;5032984;28;20486;-82
2022/09/28 05:36:18;;;;;;;6.90;4.80;;;9.00;99.90;;;;;;5035412;28;20502;-85
2022/09/28 05:38:45;;;;;;;6.53;5.30;;;9.00;99.90;;;;;;5018036;28;20030;-85
2022/09/28 05:41:11;;;;;;;8.60;4.57;;;9.00;99.90;;;;;;5043720;28;20021;-83
2022/09/28 05:43:37;;;;;;;7.47;5.20;;;8.90;99.90;;;;;;5037123;28;20026;-84
2022/09/28 05:46:04;;;;;;;9.02;5.43;;;9.00;99.90;;;;;;5008014;28;20049;-84
2022/09/28 05:48:30;;;;;;;6.83;5.20;;;8.90;99.90;;;;;;5037105;28;20067;-87
2022/09/28 05:50:59;;;;;;;5.68;4.65;;;8.90;99.90;;;;;;5043187;28;20247;-86
2022/09/28 05:53:26;;;;;;;9.98;4.65;;;9.00;99.90;;;;;;5029453;28;20028;-84
2022/09/28 05:55:56;;;;;;;6.22;4.72;;;9.00;99.90;;;;;;5023973;28;20535;-86
2022/09/28 05:58:22;;;;;;;6.63;4.75;;;9.00;99.90;;;;;;5020918;28;20042;-84
2022/09/28 06:00:55;;;;;;;6.80;4.45;;;9.10;99.90;;;;;;5014348;28;20140;-83
2022/09/28 06:03:21;;;;;;;5.57;4.72;;;9.10;99.90;;;;;;5011191;28;20030;-84
2022/09/28 06:05:48;;;;;;;7.38;4.22;;;9.10;99.90;;;;;;5022650;28;20030;-85
2022/09/28 06:08:14;;;;;;;7.25;4.53;;;9.10;99.90;;;;;;5010436;28;20037;-84
2022/09/28 06:10:40;;;;;;;10.15;4.88;;;9.20;99.90;;;;;;5012318;28;20022;-82
2022/09/28 06:13:07;;;;;;;9.15;4.82;;;9.20;99.90;;;;;;5008073;28;20137;-86
2022/09/28 06:15:35;;;;;;;4.60;3.58;;;9.30;99.90;;;;;;5022921;28;20030;-85
2022/09/28 06:18:13;;;;;;;11.15;4.75;;;9.30;99.90;;;;;;5026250;28;20034;-85
2022/09/28 06:20:40;;;;;;;7.40;3.78;;;9.40;99.90;;;;;;5008582;28;20034;-83
2022/09/28 06:23:07;;;;;;;6.57;3.97;;;9.40;99.90;;;;;;5015169;28;20029;-84
2022/09/28 06:25:33;;;;;;;6.75;3.60;;;9.50;99.90;;;;;;5019879;28;20032;-85
2022/09/28 06:28:06;;;;;;;5.57;4.18;;;9.50;99.90;;;;;;5014306;28;20030;-85
2022/09/28 06:30:34;;;;;;;4.70;3.92;;;9.50;99.90;;;;;;5020949;28;20033;-82
2022/09/28 06:33:01;;;;;;;7.63;4.55;;;9.60;99.90;;;;;;5012121;28;20026;-85
2022/09/28 06:35:29;;;;;;;;;;;9.60;99.90;;;;;;5012005;28;20143;-86
2022/09/28 06:37:55;;;;;;;;;;;9.70;99.90;;;;;;5043457;28;19912;-85
2022/09/28 06:40:23;;;;;;;6.57;3.97;;;9.70;99.90;;;;;;5033185;28;19905;-87
2022/09/28 06:43:01;;;;;;;6.55;4.28;;;9.80;99.90;;;;;;5046790;28;20022;-88
2022/09/28 06:45:28;;;;;;;4.03;3.63;;;9.80;99.90;;;;;;5045815;28;20053;-86
2022/09/28 06:47:57;;;;;;;7.40;3.90;;;9.80;99.90;;;;;;5026633;28;20048;-86
2022/09/28 06:50:26;;;;;;;5.60;4.28;;;9.80;99.90;;;;;;5046060;28;20022;-86
2022/09/28 06:52:53;;;;;;;5.78;4.35;;;9.80;99.90;;;;;;5044884;28;20022;-85
2022/09/28 06:55:20;;;;;;;10.80;5.03;;;9.80;99.90;;;;;;5043608;28;20141;-88
2022/09/28 06:57:55;;;;;;;5.75;3.53;;;9.80;99.90;;;;;;5056566;28;20014;-85
2022/09/28 07:00:23;;;;;;;10.85;4.70;;;9.80;99.90;;;;;;5053876;28;20108;-86
2022/09/28 07:02:49;;;;;;;5.57;3.90;;;9.80;99.90;;;;;;5026082;28;20040;-87
2022/09/28 07:05:14;;;;;;;8.20;3.95;;;9.80;99.90;;;;;;5038492;28;20022;-87
2022/09/28 07:07:45;;;;;;;6.40;4.50;;;9.70;99.90;;;;;;5028165;28;20028;-88
2022/09/28 07:10:11;;;;;;;4.70;3.97;;;9.70;99.90;;;;;;5047083;28;20048;-86
2022/09/28 07:12:39;;;;;;;7.22;4.00;;;9.70;99.90;;;;;;5047540;28;20026;-85
2022/09/28 07:15:06;;;;;;;7.18;4.20;;;9.70;99.90;;;;;;5048413;28;20025;-86
2022/09/28 07:17:33;;;;;;;4.47;3.90;;;9.70;99.90;;;;;;5031038;28;20038;-85
2022/09/28 07:19:59;;;;;;;7.70;4.63;;;9.70;99.90;;;;;;5044660;28;20266;-88
2022/09/28 07:22:25;;;;;;;5.93;4.22;;;9.70;99.90;;;;;;5039131;28;20029;-90
2022/09/28 07:24:51;;;;;;;5.50;3.97;;;9.80;99.90;;;;;;5039569;28;20025;-87
2022/09/28 07:27:18;;;;;;;5.72;3.70;;;9.80;99.90;;;;;;5046793;28;20528;-87
2022/09/28 07:29:44;;;;;;;6.78;3.90;;;9.90;99.90;;;;;;5022853;28;20028;-86
2022/09/28 07:32:10;;;;;;;8.65;4.00;;;9.90;99.90;;;;;;5011941;28;20060;-85
2022/09/28 07:34:40;;;;;;;5.65;4.32;;;9.90;99.90;;;;;;5045546;28;20017;-86
2022/09/28 07:37:07;;;;;;;7.28;4.18;;;10.00;99.90;;;;;;5025621;28;20068;-85
2022/09/28 07:41:10;;;;;;;9.43;4.75;;;10.00;99.90;;;;;;5028700;28;20017;-87
2022/09/28 07:42:28;;;;;;;4.68;3.78;;;10.00;99.90;;;;;;5036079;28;20033;-87
2022/09/28 07:45:00;;;;;;;8.10;3.97;;;10.10;99.90;;;;;;5029070;28;20029;-88
2022/09/28 07:47:30;;;;;;;11.85;4.68;;;10.10;99.90;;;;;;5037915;28;20021;-87
2022/09/28 07:50:01;;;;;;;7.63;4.20;;;10.10;99.90;;;;;;5051639;28;20029;-85
2022/09/28 07:52:27;;;;;;;6.90;4.82;;;10.20;99.90;;;;;;5046213;28;20030;-87
2022/09/28 07:54:54;;;;;;;8.57;5.07;;;10.20;99.90;;;;;;5051351;28;20026;-86
2022/09/28 07:57:23;;;;;;;5.63;4.43;;;10.20;99.90;;;;;;5040502;28;20075;-87
2022/09/28 07:59:52;;;;;;;8.30;4.50;;;10.30;99.90;;;;;;5041858;28;20105;-89
2022/09/28 08:02:29;;;;;;;8.43;4.07;;;10.30;99.90;;;;;;5042891;28;20113;-86
2022/09/28 08:04:57;;;;;;;6.90;3.53;;;10.40;99.90;;;;;;5007074;28;20048;-85
2022/09/28 08:07:24;;;;;;;6.50;4.03;;;10.40;99.90;;;;;;5041696;28;20036;-87
2022/09/28 08:09:50;;;;;;;11.13;4.85;;;10.30;99.90;;;;;;5024439;28;20022;-87
2022/09/28 08:12:18;;;;;;;7.53;4.47;;;10.30;99.90;;;;;;5044991;28;20030;-89
2022/09/28 08:14:44;;;;;;;;;;;10.30;99.90;;;;;;5044910;28;20021;-87
2022/09/28 08:17:10;;;;;;;7.32;4.82;;;10.30;99.90;;;;;;5052805;28;19980;-86
2022/09/28 08:22:21;;;;;;;8.85;4.25;;;10.30;99.90;;;;;;5043698;28;20086;-85
2022/09/28 08:24:48;;;;;;;5.10;3.75;;;10.40;99.90;;;;;;5027760;28;20089;-88
2022/09/28 08:27:17;;;;;;;8.30;4.20;;;10.40;99.90;;;;;;5043335;28;20057;-85
2022/09/28 08:29:43;;;;;;;4.97;3.80;;;10.50;99.90;;;;;;5009886;28;20041;-87
2022/09/28 08:32:10;;;;;;;8.90;3.70;;;10.50;99.90;;;;;;5023591;28;20033;-86
2022/09/28 08:34:37;;;;;;;4.72;3.85;;;10.60;99.90;;;;;;5023793;28;20025;-88
2022/09/28 08:37:04;;;;;;;5.82;3.78;;;10.70;99.90;;;;;;5037813;28;20045;-87
2022/09/28 08:39:30;;;;;;;5.80;3.88;;;10.70;99.90;;;;;;5011093;28;20054;-87
2022/09/28 08:42:17;;;;;;;8.65;3.85;;;10.70;99.90;;;;;;5039598;28;20030;-86
2022/09/28 08:44:50;;;;;;;8.50;4.00;;;10.70;99.90;;;;;;5029210;28;20132;-85
2022/09/28 08:51:00;;;;;;;5.28;3.97;;;10.60;99.90;;;;;;4960289;28;20062;-87
2022/09/28 08:53:59;;;;;;;8.85;4.82;;;10.70;99.90;;;;;;4952568;29;20034;-86
2022/09/28 08:57:04;;;;;;;6.05;4.43;;;10.70;99.90;;;;;;4935737;29;20043;-87
2022/09/28 09:00:05;;;;;;;8.70;5.25;;;10.80;99.90;;;;;;4962741;29;20047;-87
2022/09/28 09:02:38;;;;;;;9.52;4.60;;;11.00;99.90;;;;;;4922715;29;20035;-85
2022/09/28 09:05:10;;;;;;;10.55;6.53;;;11.10;99.90;;;;;;4950527;29;20035;-85
2022/09/28 09:08:05;;;;;;;7.38;4.80;;;11.20;99.90;;;;;;4943642;29;20094;-86
2022/09/28 09:10:43;;;;;;;6.75;5.13;;;11.20;99.90;;;;;;4955388;29;20031;-87
2022/09/28 09:13:36;;;;;;;8.00;4.47;;;11.20;99.90;;;;;;4954219;29;20039;-88
2022/09/28 09:16:19;;;;;;;10.60;5.28;;;11.20;99.90;;;;;;4954332;29;20042;-86
2022/09/28 09:18:54;;;;;;;8.98;5.40;;;11.20;99.90;;;;;;4954325;29;20042;-86
2022/09/28 09:21:34;;;;;;;6.57;4.95;;;11.30;99.90;;;;;;4973264;28;20048;-88
2022/09/28 09:24:36;;;;;;;8.00;5.05;;;11.30;99.90;;;;;;4979716;28;20033;-86
2022/09/28 09:27:06;;;;;;;7.30;5.07;;;11.40;99.90;;;;;;4997582;28;20049;-86
2022/09/28 09:29:59;;;;;;;9.63;5.47;;;11.20;99.90;;;;;;5041060;28;20026;-87
2022/09/28 09:32:33;;;;;;;8.30;6.05;;;11.20;99.90;;;;;;5047211;28;20509;-86
2022/09/28 09:35:05;;;;;;;8.30;4.57;;;11.20;99.90;;;;;;5021908;28;20050;-86
2022/09/28 09:37:52;;;;;;;8.52;5.72;;;11.20;99.90;;;;;;5023466;28;20041;-87
2022/09/28 09:40:40;;;;;;;7.50;5.22;;;11.20;99.90;;;;;;5044736;28;20018;-85
2022/09/28 09:43:28;;;;;;;8.05;5.57;;;11.10;99.90;;;;;;5049331;28;20029;-88
2022/09/28 09:46:03;;;;;;;11.90;5.18;;;11.20;99.90;;;;;;5038292;28;20106;-86
2022/09/28 09:48:55;;;;;;;6.22;4.95;;;11.20;99.90;;;;;;5029104;28;20511;-88
2022/09/28 09:51:32;;;;;;;7.43;5.47;;;11.20;99.90;;;;;;5037098;28;20049;-86
2022/09/28 09:54:09;;;;;;;7.13;5.30;;;11.20;99.90;;;;;;5044111;28;20029;-87
2022/09/28 09:56:53;;;;;;;10.20;6.07;;;11.10;99.90;;;;;;5044747;28;20052;-86
2022/09/28 09:59:32;;;;;;;7.05;5.38;;;11.20;99.90;;;;;;5048306;28;20032;-84
2022/09/28 10:02:02;;;;;;;7.50;5.10;;;11.20;99.90;;;;;;5029083;28;20054;-86
2022/09/28 10:04:36;;;;;;;8.57;5.88;;;11.20;99.90;;;;;;5009780;28;20034;-85
2022/09/28 10:07:05;;;;;;;6.85;5.55;;;11.20;99.90;;;;;;5016221;28;20045;-85
2022/09/28 10:09:44;;;;;;;8.02;5.65;;;11.20;99.90;;;;;;5034510;28;20032;-85
2022/09/28 10:12:16;;;;;;;6.47;5.13;;;11.20;99.90;;;;;;5035162;28;20096;-87
2022/09/28 10:14:42;;;;;;;7.53;5.70;;;11.10;99.90;;;;;;5035317;28;20185;-87
2022/09/28 10:17:12;;;;;;;9.57;5.60;;;11.00;99.90;;;;;;5020937;28;20068;-87
2022/09/28 10:19:38;;;;;;;8.38;6.00;;;11.00;99.90;;;;;;5043742;28;20048;-87
2022/09/28 10:22:05;;;;;;;9.82;5.40;;;11.00;99.90;;;;;;5026980;28;20113;-87
2022/09/28 10:24:44;;;;;;;8.98;5.88;;;10.90;99.90;;;;;;5053747;28;20104;-86
2022/09/28 10:27:30;;;;;;;7.88;5.90;;;11.00;99.90;;;;;;5053109;28;20467;-86
2022/09/28 10:30:09;;;;;;;8.77;5.38;;;11.00;99.90;;;;;;5035460;28;20025;-86
2022/09/28 10:32:45;;;;;;;7.25;5.70;;;11.00;99.90;;;;;;5019539;28;20038;-86
2022/09/28 10:35:20;;;;;;;6.60;5.70;;;11.10;99.90;;;;;;5031118;28;20030;-87
2022/09/28 10:37:51;;;;;;;6.50;5.32;;;11.10;99.90;;;;;;4999661;28;20807;-86
2022/09/28 10:40:29;;;;;;;7.95;6.07;;;11.20;99.90;;;;;;5035368;28;20025;-87
2022/09/28 10:43:04;;;;;;;8.95;6.25;;;11.20;99.90;;;;;;5035990;28;20041;-88
2022/09/28 10:45:38;;;;;;;12.35;6.63;;;11.20;99.90;;;;;;5034191;28;20053;-88
2022/09/28 10:48:17;;;;;;;9.75;6.78;;;11.20;99.90;;;;;;5044542;28;20030;-88
2022/09/28 10:51:03;;;;;;;10.23;6.35;;;11.10;99.90;;;;;;5051645;28;20045;-88
2022/09/28 10:53:49;;;;;;;8.30;6.57;;;11.10;99.90;;;;;;5058629;28;20021;-88
2022/09/28 10:56:36;;;;;;;8.40;6.35;;;11.20;99.90;;;;;;5042156;28;20030;-86
2022/09/28 10:59:39;;;;;;;8.32;6.30;;;11.20;99.90;;;;;;5052956;28;20037;-87
2022/09/28 11:02:12;;;;;;;8.38;6.40;;;11.30;99.90;;;;;;5054105;28;20021;-86
2022/09/28 11:04:52;;;;;;;8.07;6.28;;;11.30;99.90;;;;;;5043250;28;20090;-86
2022/09/28 11:07:25;;;;;;;8.52;6.40;;;11.50;99.90;;;;;;5004441;28;20026;-87
2022/09/28 11:09:55;;;;;;;10.77;6.32;;;11.60;99.90;;;;;;5001591;28;20030;-87
2022/09/28 11:12:32;;;;;;;9.38;6.97;;;11.80;99.90;;;;;;5020006;28;20034;-87
2022/09/28 11:15:06;;;;;;;9.50;8.00;;;11.90;99.90;;;;;;4998253;28;20106;-88
2022/09/28 11:17:40;;;;;;;10.27;7.82;;;11.80;99.90;;;;;;4999179;28;20068;-87
2022/09/28 11:20:25;;;;;;;9.40;7.47;;;11.70;99.90;;;;;;5016808;28;20007;-86
2022/09/28 11:22:52;;;;;;;9.23;6.82;;;11.70;99.90;;;;;;4993301;28;20075;-86
2022/09/28 11:25:23;;;;;;;7.85;6.55;;;11.70;99.90;;;;;;4994028;28;20022;-88
2022/09/28 11:27:51;;;;;;;11.48;7.55;;;11.60;99.90;;;;;;4996035;28;20031;-87
2022/09/28 11:30:35;;;;;;;10.40;6.50;;;11.70;99.90;;;;;;4991528;28;20530;-89
2022/09/28 11:33:17;;;;;;;12.13;7.82;;;11.70;99.90;;;;;;4979159;28;20060;-88
2022/09/28 11:36:11;;;;;;;13.05;8.40;;;11.70;99.90;;;;;;4991930;28;20038;-87
2022/09/28 11:38:56;;;;;;;11.85;7.53;;;11.70;99.90;;;;;;5022917;28;20040;-87
2022/09/28 11:41:37;;;;;;;14.70;8.93;;;11.60;99.90;;;;;;5037085;28;20040;-87
2022/09/28 11:44:13;;;;;;;10.45;8.63;;;11.60;99.90;;;;;;5018645;28;20021;-86
2022/09/28 11:46:49;;;;;;;15.77;8.43;;;11.60;99.90;;;;;;5039030;28;20046;-88
2022/09/28 11:49:15;;;;;;;10.90;7.47;;;11.60;99.90;;;;;;5037787;28;20506;-87
2022/09/28 11:51:44;;;;;;;11.60;9.05;;;11.50;99.90;;;;;;5038027;28;20148;-86
2022/09/28 11:54:31;;;;;;;10.50;8.25;;;11.40;99.90;;;;;;5018130;28;20037;-87
2022/09/28 11:57:01;;;;;;;11.98;8.38;;;11.30;99.90;;;;;;5019142;28;20056;-88
2022/09/28 11:59:35;;;;;;;11.23;9.07;;;11.30;99.90;;;;;;5039592;28;20014;-88
2022/09/28 12:02:16;;;;;;;11.00;8.98;;;11.30;99.90;;;;;;5035117;28;20445;-88
2022/09/28 12:04:55;;;;;;;10.00;8.93;;;11.30;99.90;;;;;;5018319;28;20063;-87
2022/09/28 12:07:31;;;;;;;10.77;9.15;;;11.20;99.90;;;;;;5019067;28;20025;-87
2022/09/28 12:10:15;;;;;;;10.23;8.63;;;11.20;99.90;;;;;;5034599;28;20505;-86
2022/09/28 12:13:10;;;;;;;10.43;7.97;;;11.20;99.90;;;;;;5020076;28;20036;-88
2022/09/28 12:15:51;;;;;;;10.65;8.35;;;11.30;99.90;;;;;;5034361;28;20124;-86
2022/09/28 12:18:32;;;;;;;10.55;7.57;;;11.30;99.90;;;;;;5036359;28;20029;-86
2022/09/28 12:21:24;;;;;;;9.52;7.55;;;11.30;99.90;;;;;;5037053;28;20037;-86
2022/09/28 12:23:53;;;;;;;11.48;7.05;;;11.30;99.90;;;;;;5024689;28;20100;-85
2022/09/28 12:26:24;;;;;;;8.25;7.32;;;11.30;99.90;;;;;;5025962;28;20532;-89
2022/09/28 12:28:56;;;;;;;10.50;6.90;;;11.40;99.90;;;;;;5020128;28;20446;-85
2022/09/28 12:31:55;;;;;;;9.43;7.00;;;11.40;99.90;;;;;;5027001;28;20029;-87
2022/09/28 12:34:22;;;;;;;10.98;6.32;;;11.50;99.90;;;;;;5036118;28;20083;-85
2022/09/28 12:37:26;;;;;;;8.20;5.60;;;11.50;99.90;;;;;;5033742;28;20039;-86
2022/09/28 12:40:30;;;;;;;6.95;5.70;;;11.50;99.90;;;;;;4961358;28;20038;-88
2022/09/28 12:43:08;;;;;;;7.22;6.35;;;11.50;99.90;;;;;;4961870;28;20062;-87
2022/09/28 12:45:42;;;;;;;9.45;4.80;;;11.50;99.90;;;;;;4976362;28;20035;-86
2022/09/28 12:48:21;;;;;;;6.70;5.32;;;11.50;99.90;;;;;;4993524;28;20062;-87
2022/09/28 12:51:20;;;;;;;8.23;5.68;;;11.50;99.90;;;;;;4982184;28;20031;-87
2022/09/28 12:54:18;;;;;;;8.98;5.40;;;11.50;99.90;;;;;;4975944;28;20405;-86
2022/09/28 12:57:07;;;;;;;7.45;5.38;;;11.50;99.90;;;;;;4966768;28;20038;-85
2022/09/28 12:59:43;;;;;;;6.18;4.85;;;11.50;99.90;;;;;;4974207;28;20031;-86
2022/09/28 13:02:39;;;;;;;10.48;5.32;;;11.50;99.80;;;;;;4975966;28;20580;-87
2022/09/28 13:05:33;;;;;;;6.40;5.15;;;11.50;99.90;;;;;;4977911;28;20038;-88
2022/09/28 13:08:07;;;;;;;10.57;5.70;;;11.50;99.90;;;;;;4992178;28;20019;-86
2022/09/28 13:10:41;;;;;;;9.48;5.13;;;11.50;99.90;;;;;;5009431;28;20045;-86
2022/09/28 13:13:10;;;;;;;7.85;5.45;;;11.50;99.90;;;;;;5047101;28;20429;-88
2022/09/28 13:16:02;;;;;;;11.90;5.82;;;11.50;99.80;;;;;;5019472;28;20061;-88
2022/09/28 13:18:32;;;;;;;7.43;5.15;;;11.50;99.80;;;;;;5035881;28;20021;-86
2022/09/28 13:21:29;;;;;;;10.52;5.25;;;11.50;99.80;;;;;;5018271;28;20025;-90
2022/09/28 13:23:58;;;;;;;8.70;5.43;;;11.60;99.90;;;;;;5034219;28;20033;-86
2022/09/28 13:26:38;;;;;;;11.00;7.32;;;11.60;99.80;;;;;;5034166;28;20083;-87
2022/09/28 13:29:14;;;;;;;12.18;6.88;;;11.50;99.70;;;;;;5034635;28;20356;-87
2022/09/28 13:31:52;;;;;;;12.75;5.97;;;11.50;99.80;;;;;;5034087;28;20024;-87
2022/09/28 13:34:28;;;;;;;10.90;6.00;;;11.50;99.80;;;;;;5033087;28;20032;-87